createdAt,value
2022-11-10T00:01:17.645Z,8.00
2022-11-10T00:04:33.777Z,6.80
2022-11-10T00:07:50.078Z,6.60
2022-11-10T00:11:08.770Z,9.00
2022-11-10T00:14:43.510Z,5.80
2022-11-10T00:18:02.305Z,10.40
2022-11-10T00:21:18.421Z,9.00
2022-11-10T00:24:34.546Z,8.80
2022-11-10T00:27:49.704Z,7.40
2022-11-10T00:31:07.192Z,6.20
2022-11-10T00:34:22.966Z,7.40
2022-11-10T00:37:38.664Z,9.00
2022-11-10T00:40:54.816Z,9.40
2022-11-10T00:44:10.310Z,9.00
2022-11-10T00:47:25.957Z,10.00
2022-11-10T00:50:42.030Z,10.20
2022-11-10T00:53:57.813Z,7.00
2022-11-10T00:57:13.979Z,6.60
2022-11-10T01:00:29.758Z,9.40
2022-11-10T01:03:45.597Z,10.00
2022-11-10T01:07:01.882Z,7.00
2022-11-10T01:10:17.948Z,8.00
2022-11-10T01:13:33.827Z,7.40
2022-11-10T01:16:49.946Z,7.00
2022-11-10T01:20:08.479Z,9.00
2022-11-10T01:23:24.300Z,6.00
2022-11-10T01:26:40.858Z,7.80
2022-11-10T01:29:56.893Z,7.00
2022-11-10T01:33:13.009Z,8.60
2022-11-10T01:36:28.633Z,8.80
2022-11-10T01:39:45.154Z,9.00
2022-11-10T01:43:00.785Z,7.80
2022-11-10T01:46:16.746Z,8.40
2022-11-10T01:49:33.829Z,7.80
2022-11-10T01:52:50.730Z,6.20
2022-11-10T01:56:06.105Z,7.20
2022-11-10T01:59:28.197Z,7.80
2022-11-10T02:03:19.072Z,4.40
2022-11-10T02:06:41.111Z,11.20
2022-11-10T02:09:56.626Z,6.20
2022-11-10T02:13:12.698Z,9.00
2022-11-10T02:16:27.987Z,8.60
2022-11-10T02:19:43.833Z,9.20
2022-11-10T02:22:59.935Z,11.00
2022-11-10T02:26:18.023Z,9.80
2022-11-10T02:29:33.703Z,11.00
2022-11-10T02:32:50.089Z,10.00
2022-11-10T02:36:05.791Z,8.40
2022-11-10T02:39:20.805Z,9.40
2022-11-10T02:42:37.067Z,7.40
2022-11-10T02:45:52.648Z,10.60
2022-11-10T02:49:08.216Z,9.00
2022-11-10T02:52:23.513Z,10.00
2022-11-10T02:55:38.768Z,10.80
2022-11-10T02:58:54.568Z,12.60
2022-11-10T03:02:09.888Z,9.60
2022-11-10T03:05:25.699Z,12.00
2022-11-10T03:08:41.801Z,13.40
2022-11-10T03:11:58.022Z,10.80
2022-11-10T03:15:14.586Z,13.40
2022-11-10T03:18:30.150Z,10.40
2022-11-10T03:21:46.057Z,7.00
2022-11-10T03:25:02.183Z,11.20
2022-11-10T03:28:17.904Z,13.00
2022-11-10T03:31:33.854Z,11.00
2022-11-10T03:34:49.994Z,10.80
2022-11-10T03:38:05.774Z,11.40
2022-11-10T03:41:22.058Z,15.40
2022-11-10T03:44:37.770Z,14.20
2022-11-10T03:47:53.858Z,14.40
2022-11-10T03:51:09.657Z,16.20
2022-11-10T03:54:25.892Z,17.00
2022-11-10T03:57:41.979Z,16.60
2022-11-10T04:00:57.965Z,18.40
2022-11-10T04:04:31.506Z,12.60
2022-11-10T04:08:05.124Z,18.60
2022-11-10T04:11:40.113Z,16.40
2022-11-10T04:15:14.604Z,18.80
2022-11-10T04:18:29.805Z,17.80
2022-11-10T04:21:45.976Z,15.80
2022-11-10T04:25:01.756Z,20.00
2022-11-10T04:28:16.993Z,17.80
2022-11-10T04:31:33.674Z,20.20
2022-11-10T04:34:48.631Z,21.40
2022-11-10T04:38:05.034Z,17.60
2022-11-10T04:41:20.955Z,18.00
2022-11-10T04:44:37.042Z,19.40
2022-11-10T04:47:52.894Z,15.20
2022-11-10T04:51:09.792Z,19.20
2022-11-10T04:54:26.129Z,19.80
2022-11-10T04:57:42.861Z,20.00
2022-11-10T05:00:59.141Z,19.80
2022-11-10T05:04:15.259Z,22.40
2022-11-10T05:07:31.190Z,17.40
2022-11-10T05:10:46.742Z,19.20
2022-11-10T05:14:02.975Z,25.20
2022-11-10T05:17:18.877Z,22.20
2022-11-10T05:20:35.013Z,20.20
2022-11-10T05:23:50.974Z,16.40
2022-11-10T05:27:06.117Z,21.60
2022-11-10T05:30:21.909Z,20.60
2022-11-10T05:33:38.199Z,21.80
2022-11-10T05:36:53.945Z,26.40
2022-11-10T05:40:10.510Z,22.00
2022-11-10T05:43:27.296Z,23.20
2022-11-10T05:46:42.857Z,22.00
2022-11-10T05:49:58.318Z,24.60
2022-11-10T05:53:14.085Z,26.60
2022-11-10T05:56:30.002Z,23.60
2022-11-10T05:59:46.033Z,26.40
2022-11-10T06:03:06.261Z,25.60
2022-11-10T06:06:23.055Z,26.00
2022-11-10T06:09:38.987Z,23.40
2022-11-10T06:12:55.056Z,24.40
2022-11-10T06:16:11.038Z,25.20
2022-11-10T06:19:27.112Z,29.00
2022-11-10T06:22:43.074Z,21.40
2022-11-10T06:25:58.989Z,27.00
2022-11-10T06:29:15.237Z,25.40
2022-11-10T06:32:30.940Z,28.00
2022-11-10T06:35:47.408Z,27.40
2022-11-10T06:39:03.116Z,31.40
2022-11-10T06:42:19.118Z,25.20
2022-11-10T06:45:35.072Z,24.80
2022-11-10T06:48:51.127Z,28.00
2022-11-10T06:52:06.871Z,28.20
2022-11-10T06:55:23.229Z,27.20
2022-11-10T06:58:38.861Z,25.00
2022-11-10T07:01:54.117Z,24.80
2022-11-10T07:05:10.290Z,23.40
2022-11-10T07:08:26.118Z,15.00
2022-11-10T07:11:42.434Z,20.80
2022-11-10T07:14:57.957Z,22.60
2022-11-10T07:18:14.132Z,14.40
2022-11-10T07:21:30.079Z,13.80
2022-11-10T07:24:46.243Z,23.40
2022-11-10T07:28:03.296Z,17.60
2022-11-10T07:31:19.297Z,19.20
2022-11-10T07:34:34.717Z,19.40
2022-11-10T07:37:49.905Z,18.80
2022-11-10T07:41:05.259Z,15.60
2022-11-10T07:44:21.142Z,18.20
2022-11-10T07:47:36.993Z,15.20
2022-11-10T07:50:53.420Z,14.20
2022-11-10T07:54:09.339Z,15.00
2022-11-10T07:57:25.101Z,15.80
2022-11-10T08:00:41.184Z,14.40
2022-11-10T08:03:56.976Z,11.40
2022-11-10T08:07:12.342Z,15.40
2022-11-10T08:10:28.778Z,11.00
2022-11-10T08:13:44.028Z,15.80
2022-11-10T08:17:00.101Z,10.80
2022-11-10T08:20:17.130Z,10.40
2022-11-10T08:23:33.571Z,11.20
2022-11-10T08:26:50.283Z,12.20
2022-11-10T08:30:07.061Z,15.60
2022-11-10T08:33:23.560Z,15.20
2022-11-10T08:36:40.123Z,14.40
2022-11-10T08:39:56.028Z,17.00
2022-11-10T08:43:13.102Z,14.60
2022-11-10T08:46:29.504Z,17.00
2022-11-10T08:49:44.804Z,21.60
2022-11-10T08:53:09.684Z,14.80
2022-11-10T08:56:25.373Z,17.40
2022-11-10T08:59:40.728Z,19.40
2022-11-10T09:02:57.655Z,15.60
2022-11-10T09:06:12.919Z,17.40
2022-11-10T09:09:28.910Z,20.20
2022-11-10T09:12:45.177Z,16.80
2022-11-10T09:16:04.857Z,21.20
2022-11-10T09:19:20.436Z,17.00
2022-11-10T09:22:36.662Z,17.40
2022-11-10T09:25:54.189Z,18.20
2022-11-10T09:29:10.349Z,17.60
2022-11-10T09:32:26.176Z,17.40
2022-11-10T09:35:43.043Z,21.40
2022-11-10T09:38:59.113Z,17.80
2022-11-10T09:42:39.465Z,16.60
2022-11-10T09:45:55.661Z,19.20
2022-11-10T09:49:38.888Z,17.80
2022-11-10T09:52:54.266Z,20.20
2022-11-10T09:56:14.295Z,13.40
2022-11-10T09:59:32.472Z,13.60
2022-11-10T10:02:54.226Z,12.00
2022-11-10T10:06:11.593Z,12.00
2022-11-10T10:09:30.193Z,13.80
2022-11-10T10:13:07.885Z,14.00
2022-11-10T10:16:34.365Z,14.60
2022-11-10T10:20:01.654Z,15.00
2022-11-10T10:24:09.423Z,14.20
2022-11-10T10:27:29.066Z,13.80
2022-11-10T10:30:44.359Z,11.60
2022-11-10T10:34:00.181Z,12.20
2022-11-10T10:37:31.587Z,11.60
2022-11-10T10:40:47.127Z,11.80
2022-11-10T10:44:03.196Z,11.20
2022-11-10T10:47:19.344Z,11.40
2022-11-10T10:50:37.185Z,8.80
2022-11-10T10:53:52.938Z,8.40
2022-11-10T10:57:23.498Z,10.80
2022-11-10T11:00:46.125Z,7.80
2022-11-10T11:04:06.267Z,4.80
2022-11-10T11:07:23.901Z,7.20
2022-11-10T11:10:40.530Z,7.20
2022-11-10T11:14:21.003Z,3.00
2022-11-10T11:17:36.478Z,5.60
2022-11-10T11:21:26.970Z,7.00
2022-11-10T11:25:05.068Z,7.60
2022-11-10T11:28:28.197Z,6.00
2022-11-10T11:32:00.934Z,4.00
2022-11-10T11:35:42.673Z,3.00
2022-11-10T11:39:17.002Z,6.40
2022-11-10T11:42:42.973Z,3.80
2022-11-10T11:46:04.112Z,6.40
2022-11-10T11:49:41.238Z,6.00
2022-11-10T11:53:03.137Z,4.00
2022-11-10T11:56:28.725Z,5.20
2022-11-10T11:59:56.682Z,6.20
2022-11-10T12:03:17.960Z,4.40
2022-11-10T12:06:58.739Z,4.00
2022-11-10T12:10:58.685Z,6.20
2022-11-10T12:14:16.414Z,6.20
2022-11-10T12:17:48.714Z,6.40
2022-11-10T12:21:25.977Z,4.00
2022-11-10T12:24:55.473Z,3.00
2022-11-10T12:28:46.689Z,4.20
2022-11-10T12:32:16.133Z,5.20
2022-11-10T12:35:42.057Z,5.60
2022-11-10T12:39:02.338Z,6.60
2022-11-10T12:42:21.010Z,3.80
2022-11-10T12:45:41.237Z,3.00
2022-11-10T12:48:57.235Z,4.40
2022-11-10T12:52:14.874Z,6.40
2022-11-10T12:55:42.951Z,4.00
2022-11-10T12:59:15.363Z,4.60
2022-11-10T13:02:34.941Z,3.80
2022-11-10T13:05:55.386Z,3.00
2022-11-10T13:09:24.829Z,3.80
2022-11-10T13:12:45.067Z,4.00
2022-11-10T13:16:01.445Z,3.00
2022-11-10T13:19:23.209Z,3.80
2022-11-10T13:22:41.209Z,3.20
2022-11-10T13:26:05.810Z,3.20
2022-11-10T13:29:43.001Z,4.00
2022-11-10T13:33:23.206Z,3.40
2022-11-10T13:36:46.693Z,5.20
2022-11-10T13:40:20.175Z,6.00
2022-11-10T13:43:35.340Z,4.60
2022-11-10T13:47:09.897Z,3.60
2022-11-10T13:50:34.045Z,3.40
2022-11-10T13:53:52.313Z,3.40
2022-11-10T13:57:37.987Z,3.40
2022-11-10T14:01:15.315Z,3.00
2022-11-10T14:04:40.391Z,3.00
2022-11-10T14:08:22.908Z,4.00
2022-11-10T14:11:49.942Z,4.40
2022-11-10T14:15:11.861Z,2.80
2022-11-10T14:18:29.298Z,4.00
2022-11-10T14:21:45.904Z,1.80
2022-11-10T14:25:19.432Z,5.60
2022-11-10T14:28:37.624Z,6.20
2022-11-10T14:31:53.657Z,6.60
2022-11-10T14:35:21.223Z,3.00
2022-11-10T14:38:37.354Z,7.00
2022-11-10T14:41:53.940Z,6.00
2022-11-10T14:45:19.431Z,4.80
2022-11-10T14:48:36.714Z,4.00
2022-11-10T14:51:55.108Z,3.00
2022-11-10T14:55:28.573Z,3.00
2022-11-10T14:58:44.461Z,6.20
2022-11-10T15:02:01.242Z,4.80
2022-11-10T15:05:16.531Z,4.40
2022-11-10T15:08:32.582Z,3.00
2022-11-10T15:11:51.190Z,3.00
2022-11-10T15:15:22.769Z,3.40
2022-11-10T15:18:38.517Z,6.00
2022-11-10T15:21:54.347Z,4.00
2022-11-10T15:25:17.296Z,4.00
2022-11-10T15:28:34.591Z,3.20
2022-11-10T15:31:50.916Z,3.40
2022-11-10T15:35:24.244Z,2.20
2022-11-10T15:38:40.726Z,4.80
2022-11-10T15:41:57.783Z,3.80
2022-11-10T15:45:13.492Z,3.40
2022-11-10T15:48:46.438Z,3.00
2022-11-10T15:52:14.595Z,1.20
2022-11-10T15:55:34.384Z,3.20
2022-11-10T15:58:56.578Z,2.00
2022-11-10T16:02:24.995Z,3.20
2022-11-10T16:05:41.251Z,7.60
2022-11-10T16:08:57.549Z,6.60
2022-11-10T16:12:19.457Z,7.00
2022-11-10T16:15:35.348Z,3.00
2022-11-10T16:18:51.797Z,3.00
2022-11-10T16:22:10.230Z,4.00
2022-11-10T16:25:27.880Z,3.00
2022-11-10T16:28:47.696Z,2.00
2022-11-10T16:32:03.798Z,4.80
2022-11-10T16:35:19.365Z,3.20
2022-11-10T16:38:35.582Z,3.60
2022-11-10T16:41:51.345Z,4.00
2022-11-10T16:45:14.338Z,3.00
2022-11-10T16:48:31.849Z,3.60
2022-11-10T16:51:48.996Z,3.80
2022-11-10T16:55:05.631Z,1.80
2022-11-10T16:58:21.849Z,2.00
2022-11-10T17:01:37.447Z,2.00
2022-11-10T17:04:54.271Z,2.60
2022-11-10T17:08:31.412Z,2.00
2022-11-10T17:11:50.877Z,3.00
2022-11-10T17:15:06.907Z,1.80
2022-11-10T17:18:24.157Z,3.80
2022-11-10T17:21:40.589Z,6.00
2022-11-10T17:24:56.723Z,3.00
2022-11-10T17:28:13.657Z,1.00
2022-11-10T17:31:29.617Z,5.60
2022-11-10T17:34:45.441Z,3.80
2022-11-10T17:38:01.687Z,5.80
2022-11-10T17:41:18.503Z,5.80
2022-11-10T17:44:34.689Z,4.80
2022-11-10T17:47:50.610Z,2.20
2022-11-10T17:51:13.795Z,1.40
2022-11-10T17:54:29.516Z,2.60
2022-11-10T17:57:45.813Z,4.00
2022-11-10T18:01:01.566Z,2.00
2022-11-10T18:04:17.759Z,2.00
2022-11-10T18:07:33.563Z,2.00
2022-11-10T18:10:50.511Z,4.20
2022-11-10T18:14:06.594Z,3.00
2022-11-10T18:17:22.662Z,3.00
2022-11-10T18:20:38.891Z,3.00
2022-11-10T18:23:54.297Z,2.00
2022-11-10T18:27:10.366Z,2.20
2022-11-10T18:30:31.017Z,2.00
2022-11-10T18:33:53.330Z,2.00
2022-11-10T18:37:08.662Z,3.00
2022-11-10T18:40:24.933Z,1.00
2022-11-10T18:43:40.693Z,3.00
2022-11-10T18:46:56.570Z,1.80
2022-11-10T18:50:11.798Z,2.00
2022-11-10T18:53:28.089Z,2.00
2022-11-10T18:56:43.366Z,2.00
2022-11-10T18:59:58.622Z,1.80
2022-11-10T19:03:14.746Z,3.00
2022-11-10T19:06:30.789Z,2.20
2022-11-10T19:09:46.552Z,3.00
2022-11-10T19:13:02.523Z,3.00
2022-11-10T19:16:18.528Z,2.60
2022-11-10T19:19:33.782Z,1.40
2022-11-10T19:22:49.245Z,1.80
2022-11-10T19:26:10.089Z,3.00
2022-11-10T19:29:25.753Z,2.00
2022-11-10T19:32:41.848Z,3.00
2022-11-10T19:36:03.303Z,2.40
2022-11-10T19:39:18.705Z,1.20
2022-11-10T19:42:34.524Z,1.60
2022-11-10T19:45:50.948Z,2.60
2022-11-10T19:49:06.726Z,5.00
2022-11-10T19:52:22.531Z,3.00
2022-11-10T19:55:38.558Z,5.80
2022-11-10T19:58:54.734Z,2.60
2022-11-10T20:02:13.385Z,3.00
2022-11-10T20:05:29.583Z,3.00
2022-11-10T20:08:46.335Z,5.60
2022-11-10T20:12:02.659Z,2.00
2022-11-10T20:15:18.625Z,3.40
2022-11-10T20:18:34.956Z,3.00
2022-11-10T20:21:50.854Z,3.80
2022-11-10T20:25:06.733Z,5.00
2022-11-10T20:28:22.900Z,4.20
2022-11-10T20:31:38.885Z,3.00
2022-11-10T20:34:54.897Z,4.60
2022-11-10T20:38:11.281Z,3.40
2022-11-10T20:41:28.626Z,2.60
2022-11-10T20:44:44.737Z,3.00
2022-11-10T20:48:00.710Z,5.20
2022-11-10T20:51:19.292Z,2.20
2022-11-10T20:54:34.808Z,4.60
2022-11-10T20:57:50.670Z,4.20
2022-11-10T21:01:08.416Z,5.40
2022-11-10T21:04:23.628Z,4.20
2022-11-10T21:07:39.646Z,1.00
2022-11-10T21:10:57.515Z,3.00
2022-11-10T21:14:13.867Z,5.20
2022-11-10T21:17:29.939Z,3.40
2022-11-10T21:20:46.182Z,5.20
2022-11-10T21:24:02.803Z,3.80
2022-11-10T21:27:18.731Z,5.00
2022-11-10T21:30:34.830Z,3.00
2022-11-10T21:33:50.782Z,5.60
2022-11-10T21:37:06.543Z,4.60
2022-11-10T21:40:22.442Z,5.00
2022-11-10T21:43:38.855Z,5.20
2022-11-10T21:46:54.829Z,3.40
2022-11-10T21:50:10.494Z,5.80
2022-11-10T21:53:26.804Z,5.60
2022-11-10T21:56:42.753Z,5.00
2022-11-10T21:59:57.804Z,3.20
2022-11-10T22:03:13.644Z,2.60
2022-11-10T22:06:49.666Z,5.00
2022-11-10T22:10:23.826Z,3.40
2022-11-10T22:13:58.196Z,5.40
2022-11-10T22:17:32.761Z,6.20
2022-11-10T22:20:48.947Z,6.20
2022-11-10T22:24:23.341Z,3.80
2022-11-10T22:27:38.789Z,6.80
2022-11-10T22:30:54.892Z,6.00
2022-11-10T22:34:10.671Z,2.40
2022-11-10T22:37:33.176Z,6.60
2022-11-10T22:41:21.004Z,6.00
2022-11-10T22:44:36.718Z,6.00
2022-11-10T22:48:12.478Z,5.40
2022-11-10T22:51:28.900Z,6.00
2022-11-10T22:54:44.704Z,7.60
2022-11-10T22:58:00.611Z,5.40
2022-11-10T23:01:16.875Z,6.00
2022-11-10T23:04:32.788Z,6.00
2022-11-10T23:07:48.707Z,5.80
2022-11-10T23:11:10.285Z,7.00
2022-11-10T23:14:26.083Z,5.40
2022-11-10T23:17:41.685Z,6.00
2022-11-10T23:21:01.878Z,3.40
2022-11-10T23:24:20.946Z,5.00
2022-11-10T23:27:36.796Z,6.40
2022-11-10T23:30:52.819Z,6.00
2022-11-10T23:34:08.737Z,6.80
2022-11-10T23:37:24.955Z,5.80
2022-11-10T23:40:40.922Z,8.60
2022-11-10T23:43:56.741Z,5.80
2022-11-10T23:47:13.016Z,6.00
2022-11-10T23:50:28.730Z,7.60
2022-11-10T23:53:45.056Z,8.80
2022-11-10T23:57:00.736Z,5.20
